Middletown, Delaware
Current Conditions -  °F | °C
As of 9:51 AM on Monday 22 Dec 2014 (Local Time) from KILG Reporting Station
Overcast Overcast  
Wind Chill: 35°   Ceiling: 4200
Heat Index: 35°   Visibility: 8mi
Dew Point: 28°   Wind: 0mph
Humidity: 76%   Direction: NA
Pressure: 30.31"   Gusts: NA
Location:  39.45°N, 75.72°W
Report Text: KILG 221451Z 00000KT 8SM SCT009 OVC042 02/M02 A3031 RMK AO2 SLP264 T00171022 58003
Loading
Personal Weather Stations






























Interactive Weather Map New forecast layout! Learn more

10-Day Weather Forecast

Advertisements
Track Severe Weather on mobile